createdAt,value
2023-04-14T00:00:52.815Z,66.75
2023-04-14T00:03:19.764Z,66.51
2023-04-14T00:05:46.662Z,67.04
2023-04-14T00:08:13.641Z,66.21
2023-04-14T00:10:40.607Z,66.43
2023-04-14T00:13:07.263Z,66.29
2023-04-14T00:15:33.864Z,66.55
2023-04-14T00:18:00.633Z,67.12
2023-04-14T00:20:27.302Z,66.99
2023-04-14T00:22:53.962Z,66.73
2023-04-14T00:25:20.763Z,66.42
2023-04-14T00:27:47.587Z,66.10
2023-04-14T00:30:14.336Z,66.06
2023-04-14T00:32:41.017Z,65.54
2023-04-14T00:35:07.705Z,66.08
2023-04-14T00:37:34.284Z,66.22
2023-04-14T00:40:00.908Z,65.90
2023-04-14T00:42:27.532Z,65.89
2023-04-14T00:44:54.145Z,66.15
2023-04-14T00:47:20.741Z,66.01
2023-04-14T00:49:47.506Z,66.30
2023-04-14T00:52:14.132Z,66.66
2023-04-14T00:54:40.827Z,66.26
2023-04-14T00:57:07.440Z,65.64
2023-04-14T00:59:34.080Z,67.34
2023-04-14T01:02:00.750Z,67.73
2023-04-14T01:04:33.846Z,66.92
2023-04-14T01:07:11.603Z,67.24
2023-04-14T01:09:38.221Z,67.81
2023-04-14T01:12:04.879Z,67.46
2023-04-14T01:14:31.558Z,67.40
2023-04-14T01:16:58.167Z,67.18
2023-04-14T01:19:24.835Z,67.46
2023-04-14T01:21:51.525Z,66.95
2023-04-14T01:24:18.167Z,67.40
2023-04-14T01:26:44.938Z,67.68
2023-04-14T01:29:11.592Z,67.23
2023-04-14T01:31:38.706Z,66.84
2023-04-14T01:34:05.375Z,67.63
2023-04-14T01:36:32.183Z,68.72
2023-04-14T01:38:58.923Z,68.66
2023-04-14T01:41:25.758Z,67.99
2023-04-14T01:43:52.360Z,67.25
2023-04-14T01:46:19.120Z,68.50
2023-04-14T01:48:45.899Z,68.25
2023-04-14T01:51:12.515Z,67.52
2023-04-14T01:53:39.155Z,66.88
2023-04-14T01:56:05.850Z,67.07
2023-04-14T01:58:32.538Z,67.21
2023-04-14T02:00:59.187Z,67.57
2023-04-14T02:03:26.094Z,67.78
2023-04-14T02:05:52.770Z,68.66
2023-04-14T02:08:19.404Z,68.66
2023-04-14T02:10:46.042Z,68.10
2023-04-14T02:13:12.695Z,67.36
2023-04-14T02:15:39.319Z,67.12
2023-04-14T02:18:05.985Z,66.59
2023-04-14T02:20:32.661Z,67.58
2023-04-14T02:22:59.375Z,67.34
2023-04-14T02:25:25.967Z,66.84
2023-04-14T02:27:52.575Z,67.17
2023-04-14T02:30:19.212Z,66.99
2023-04-14T02:32:45.866Z,68.31
2023-04-14T02:35:12.648Z,67.90
2023-04-14T02:37:39.318Z,66.76
2023-04-14T02:40:06.789Z,65.97
2023-04-14T02:42:33.410Z,65.35
2023-04-14T02:45:00.051Z,65.21
2023-04-14T02:47:26.721Z,65.06
2023-04-14T02:49:53.395Z,65.02
2023-04-14T02:52:19.985Z,65.17
2023-04-14T02:54:46.559Z,65.57
2023-04-14T02:57:13.156Z,64.77
2023-04-14T02:59:39.818Z,65.50
2023-04-14T03:02:06.546Z,65.34
2023-04-14T03:04:33.222Z,67.13
2023-04-14T03:06:59.836Z,67.08
2023-04-14T03:09:26.395Z,66.32
2023-04-14T03:11:52.977Z,66.70
2023-04-14T03:14:21.911Z,67.60
2023-04-14T03:16:48.540Z,67.18
2023-04-14T03:19:15.137Z,67.08
2023-04-14T03:21:41.755Z,66.50
2023-04-14T03:24:08.641Z,66.14
2023-04-14T03:26:35.285Z,67.89
2023-04-14T03:29:02.089Z,67.27
2023-04-14T03:31:28.983Z,68.09
2023-04-14T03:33:55.761Z,68.37
2023-04-14T03:36:22.427Z,67.37
2023-04-14T03:38:49.010Z,68.05
2023-04-14T03:41:15.660Z,68.02
2023-04-14T03:43:42.232Z,68.71
2023-04-14T03:46:09.020Z,68.56
2023-04-14T03:48:35.978Z,68.27
2023-04-14T03:51:02.621Z,69.37
2023-04-14T03:53:29.213Z,69.23
2023-04-14T03:55:55.803Z,68.95
2023-04-14T03:58:22.398Z,68.25
2023-04-14T04:00:49.164Z,68.42
2023-04-14T04:03:16.058Z,69.38
2023-04-14T04:05:42.788Z,69.31
2023-04-14T04:08:09.401Z,69.39
2023-04-14T04:10:36.002Z,68.03
2023-04-14T04:13:02.604Z,68.14
2023-04-14T04:15:29.317Z,67.60
2023-04-14T04:17:56.043Z,67.78
2023-04-14T04:20:22.801Z,67.43
2023-04-14T04:22:49.419Z,66.96
2023-04-14T04:25:16.046Z,66.88
2023-04-14T04:27:42.854Z,66.57
2023-04-14T04:30:09.559Z,66.43
2023-04-14T04:32:36.191Z,66.58
2023-04-14T04:35:03.113Z,67.04
2023-04-14T04:37:29.726Z,67.07
2023-04-14T04:39:56.284Z,67.26
2023-04-14T04:42:22.930Z,67.04
2023-04-14T04:44:49.483Z,66.89
2023-04-14T04:47:16.096Z,67.23
2023-04-14T04:49:42.657Z,67.09
2023-04-14T04:52:09.267Z,66.64
2023-04-14T04:54:35.830Z,66.04
2023-04-14T04:57:02.518Z,66.74
2023-04-14T04:59:29.112Z,66.37
2023-04-14T05:01:55.794Z,67.48
2023-04-14T05:04:22.559Z,68.57
2023-04-14T05:06:49.207Z,67.78
2023-04-14T05:09:15.796Z,67.55
2023-04-14T05:11:42.354Z,67.25
2023-04-14T05:14:08.978Z,66.87
2023-04-14T05:16:36.627Z,66.71
2023-04-14T05:19:03.548Z,66.88
2023-04-14T05:21:30.276Z,66.80
2023-04-14T05:23:56.901Z,66.77
2023-04-14T05:28:52.949Z,66.97
2023-04-14T05:31:19.622Z,66.75
2023-04-14T05:33:46.235Z,67.56
2023-04-14T05:36:12.839Z,67.31
2023-04-14T05:38:39.417Z,66.93
2023-04-14T05:41:06.044Z,66.50
2023-04-14T05:43:32.663Z,66.16
2023-04-14T05:45:59.253Z,65.75
2023-04-14T05:48:25.822Z,66.07
2023-04-14T05:50:52.437Z,66.26
2023-04-14T05:53:18.995Z,67.14
2023-04-14T05:55:45.613Z,66.96
2023-04-14T05:58:12.201Z,67.24
2023-04-14T06:00:38.762Z,67.08
2023-04-14T06:03:05.646Z,66.83
2023-04-14T06:05:32.624Z,65.58
2023-04-14T06:08:07.755Z,65.54
2023-04-14T06:10:34.327Z,66.87
2023-04-14T06:13:00.970Z,66.84
2023-04-14T06:15:27.577Z,66.84
2023-04-14T06:17:54.461Z,66.46
2023-04-14T06:20:21.059Z,66.71
2023-04-14T06:22:47.707Z,66.67
2023-04-14T06:25:14.297Z,65.59
2023-04-14T06:27:40.886Z,65.96
2023-04-14T06:30:07.575Z,66.44
2023-04-14T06:32:34.217Z,65.99
2023-04-14T06:35:00.794Z,65.38
2023-04-14T06:37:27.417Z,65.33
2023-04-14T06:39:54.124Z,66.49
2023-04-14T06:42:20.762Z,66.33
2023-04-14T06:44:47.363Z,66.05
2023-04-14T06:47:13.928Z,66.20
2023-04-14T06:49:40.539Z,66.26
2023-04-14T06:52:07.148Z,65.80
2023-04-14T06:54:33.727Z,66.02
2023-04-14T06:57:01.214Z,66.55
2023-04-14T06:59:27.957Z,66.59
2023-04-14T07:01:54.819Z,66.48
2023-04-14T07:04:21.521Z,65.68
2023-04-14T07:06:48.100Z,65.18
2023-04-14T07:09:14.675Z,65.34
2023-04-14T07:11:41.289Z,64.63
2023-04-14T07:14:08.048Z,64.64
2023-04-14T07:16:34.616Z,64.64
2023-04-14T07:19:01.245Z,64.97
2023-04-14T07:21:27.828Z,64.93
2023-04-14T07:23:54.422Z,64.51
2023-04-14T07:26:21.037Z,64.31
2023-04-14T07:28:47.685Z,63.95
2023-04-14T07:31:14.315Z,64.16
2023-04-14T07:33:40.894Z,64.59
2023-04-14T07:36:07.520Z,65.23
2023-04-14T07:38:34.157Z,65.30
2023-04-14T07:41:00.803Z,64.60
2023-04-14T07:43:27.390Z,64.44
2023-04-14T07:45:53.981Z,64.38
2023-04-14T07:48:20.635Z,64.83
2023-04-14T07:50:47.331Z,64.46
2023-04-14T07:53:13.889Z,66.05
2023-04-14T07:55:40.474Z,65.56
2023-04-14T07:58:07.074Z,64.60
2023-04-14T08:00:34.072Z,64.35
2023-04-14T08:03:00.840Z,64.33
2023-04-14T08:05:27.557Z,64.50
2023-04-14T08:07:54.215Z,64.39
2023-04-14T08:10:20.801Z,64.66
2023-04-14T08:12:47.372Z,64.96
2023-04-14T08:15:14.004Z,64.01
2023-04-14T08:17:40.671Z,63.66
2023-04-14T08:20:07.458Z,64.83
2023-04-14T08:22:34.035Z,64.63
2023-04-14T08:25:00.695Z,64.16
2023-04-14T08:27:27.347Z,64.50
2023-04-14T08:29:53.908Z,64.69
2023-04-14T08:32:20.554Z,64.01
2023-04-14T08:35:37.530Z,64.17
2023-04-14T08:37:34.047Z,64.58
2023-04-14T08:40:00.626Z,63.96
2023-04-14T08:42:27.191Z,63.62
2023-04-14T08:44:53.844Z,64.82
2023-04-14T08:47:20.443Z,64.10
2023-04-14T08:49:47.135Z,62.92
2023-04-14T08:52:13.799Z,63.12
2023-04-14T08:54:40.408Z,62.89
2023-04-14T08:57:07.294Z,63.55
2023-04-14T08:59:33.886Z,64.02
2023-04-14T09:02:00.631Z,63.60
2023-04-14T09:04:27.416Z,64.57
2023-04-14T09:06:54.041Z,63.53
2023-04-14T09:09:20.632Z,63.42
2023-04-14T09:11:47.206Z,63.46
2023-04-14T09:14:13.807Z,62.71
2023-04-14T09:16:40.427Z,63.34
2023-04-14T09:19:07.929Z,63.15
2023-04-14T09:21:52.111Z,62.68
2023-04-14T09:24:20.753Z,62.11
2023-04-14T09:26:47.428Z,62.37
2023-04-14T09:29:14.039Z,61.99
2023-04-14T09:31:40.708Z,63.04
2023-04-14T09:34:07.366Z,63.06
2023-04-14T09:36:33.982Z,62.90
2023-04-14T09:39:00.550Z,62.23
2023-04-14T09:41:27.129Z,62.36
2023-04-14T09:43:53.707Z,61.98
2023-04-14T09:46:20.350Z,62.01
2023-04-14T09:48:47.030Z,61.46
2023-04-14T09:51:13.731Z,61.33
2023-04-14T09:53:40.486Z,60.24
2023-04-14T09:56:07.085Z,60.81
2023-04-14T09:58:33.737Z,59.21
2023-04-14T10:01:00.313Z,60.11
2023-04-14T10:03:27.034Z,59.85
2023-04-14T10:05:54.626Z,58.28
2023-04-14T10:08:21.280Z,59.19
2023-04-14T10:10:47.868Z,58.84
2023-04-14T10:13:14.450Z,58.39
2023-04-14T10:15:41.112Z,58.43
2023-04-14T10:18:07.733Z,58.96
2023-04-14T10:20:34.399Z,58.69
2023-04-14T10:23:01.182Z,59.06
2023-04-14T10:25:27.752Z,57.93
2023-04-14T10:27:54.459Z,57.89
2023-04-14T10:30:21.070Z,58.53
2023-04-14T10:32:47.685Z,58.44
2023-04-14T10:35:14.329Z,57.82
2023-04-14T10:37:40.959Z,58.86
2023-04-14T10:40:07.631Z,57.88
2023-04-14T10:42:34.239Z,58.15
2023-04-14T10:45:00.817Z,57.05
2023-04-14T10:47:27.447Z,56.47
2023-04-14T10:49:54.893Z,57.20
2023-04-14T10:52:21.498Z,57.48
2023-04-14T10:54:48.176Z,57.92
2023-04-14T10:57:14.824Z,57.41
2023-04-14T10:59:41.636Z,56.67
2023-04-14T11:02:08.409Z,57.56
2023-04-14T11:04:35.134Z,58.74
2023-04-14T11:07:01.769Z,57.35
2023-04-14T11:09:28.739Z,57.83
2023-04-14T11:11:55.413Z,58.92
2023-04-14T11:14:22.047Z,58.09
2023-04-14T11:17:02.842Z,58.06
2023-04-14T11:19:30.243Z,56.75
2023-04-14T11:21:56.827Z,58.38
2023-04-14T11:24:23.413Z,58.23
2023-04-14T11:26:50.365Z,57.31
2023-04-14T11:29:16.954Z,57.53
2023-04-14T11:31:43.645Z,57.40
2023-04-14T11:34:10.379Z,58.08
2023-04-14T11:36:37.028Z,57.82
2023-04-14T11:39:03.769Z,56.49
2023-04-14T11:41:30.407Z,58.27
2023-04-14T11:43:56.979Z,57.71
2023-04-14T11:46:24.106Z,57.57
2023-04-14T11:48:50.818Z,57.53
2023-04-14T11:51:17.418Z,58.21
2023-04-14T11:53:44.016Z,57.15
2023-04-14T11:56:10.657Z,57.41
2023-04-14T11:58:37.398Z,57.31
2023-04-14T12:01:03.998Z,57.61
2023-04-14T12:03:31.080Z,57.18
2023-04-14T12:05:57.971Z,56.56
2023-04-14T12:08:24.739Z,57.39
2023-04-14T12:10:51.334Z,57.40
2023-04-14T12:13:17.991Z,58.94
2023-04-14T12:15:44.561Z,58.70
2023-04-14T12:18:11.200Z,58.34
2023-04-14T12:20:37.808Z,57.46
2023-04-14T12:23:04.447Z,56.93
2023-04-14T12:25:31.080Z,56.59
2023-04-14T12:27:57.666Z,56.70
2023-04-14T12:30:24.231Z,56.39
2023-04-14T12:32:50.853Z,56.76
2023-04-14T12:35:17.564Z,56.93
2023-04-14T12:37:44.158Z,55.32
2023-04-14T12:40:12.534Z,56.63
2023-04-14T12:42:39.200Z,54.33
2023-04-14T12:45:05.804Z,55.69
2023-04-14T12:47:32.387Z,55.56
2023-04-14T12:49:59.048Z,54.63
2023-04-14T12:52:25.608Z,55.32
2023-04-14T12:54:52.361Z,54.54
2023-04-14T12:57:19.428Z,54.79
2023-04-14T12:59:46.120Z,53.50
2023-04-14T13:02:12.940Z,54.13
2023-04-14T13:04:39.661Z,53.40
2023-04-14T13:07:06.278Z,54.47
2023-04-14T13:09:32.950Z,54.49
2023-04-14T13:11:59.560Z,54.33
2023-04-14T13:14:26.152Z,53.21
2023-04-14T13:16:54.069Z,54.99
2023-04-14T13:19:21.344Z,53.71
2023-04-14T13:21:47.931Z,54.26
2023-04-14T13:24:14.526Z,53.24
2023-04-14T13:26:41.170Z,53.43
2023-04-14T13:29:07.765Z,52.96
2023-04-14T13:31:34.379Z,52.16
2023-04-14T13:34:00.967Z,52.57
2023-04-14T13:36:27.602Z,50.13
2023-04-14T13:38:54.209Z,51.28
2023-04-14T13:41:20.788Z,52.14
2023-04-14T13:43:47.378Z,52.24
2023-04-14T13:46:16.171Z,52.76
2023-04-14T13:48:43.829Z,53.10
2023-04-14T13:51:10.578Z,52.13
2023-04-14T13:53:37.248Z,52.19
2023-04-14T13:56:03.869Z,52.18
2023-04-14T13:58:30.426Z,52.83
2023-04-14T14:00:57.097Z,51.48
2023-04-14T14:03:23.831Z,52.02
2023-04-14T14:05:50.629Z,51.27
2023-04-14T14:08:17.292Z,51.45
2023-04-14T14:10:43.875Z,51.40
2023-04-14T14:13:10.605Z,52.71
2023-04-14T14:15:37.247Z,53.14
2023-04-14T14:18:03.983Z,52.87
2023-04-14T14:20:30.567Z,51.42
2023-04-14T14:22:57.151Z,50.71
2023-04-14T14:25:23.710Z,51.58
2023-04-14T14:27:50.323Z,52.06
2023-04-14T14:30:16.898Z,52.11
2023-04-14T14:32:43.549Z,51.50
2023-04-14T14:35:10.185Z,50.74
2023-04-14T14:37:36.979Z,51.32
2023-04-14T14:40:03.667Z,51.56
2023-04-14T14:42:30.309Z,51.80
2023-04-14T14:44:57.052Z,52.19
2023-04-14T14:47:24.229Z,53.67
2023-04-14T14:49:59.512Z,53.61
2023-04-14T14:52:30.248Z,53.87
2023-04-14T14:54:56.880Z,54.20
2023-04-14T14:57:23.466Z,54.48
2023-04-14T14:59:50.084Z,54.80
2023-04-14T15:02:18.897Z,55.01
2023-04-14T15:04:45.523Z,55.24
2023-04-14T15:07:12.123Z,55.11
2023-04-14T15:09:38.718Z,55.50
2023-04-14T15:12:05.290Z,55.59
2023-04-14T15:14:31.902Z,56.08
2023-04-14T15:16:58.531Z,55.88
2023-04-14T15:19:25.208Z,55.74
2023-04-14T15:21:52.073Z,56.39
2023-04-14T15:24:18.642Z,55.88
2023-04-14T15:26:45.265Z,56.59
2023-04-14T15:29:11.887Z,57.49
2023-04-14T15:31:38.529Z,57.99
2023-04-14T15:34:05.174Z,58.00
2023-04-14T15:36:31.791Z,58.64
2023-04-14T15:38:58.492Z,58.32
2023-04-14T15:41:25.076Z,58.97
2023-04-14T15:43:51.693Z,59.19
2023-04-14T15:46:18.566Z,58.79
2023-04-14T15:48:45.173Z,58.29
2023-04-14T15:51:11.790Z,58.26
2023-04-14T15:53:38.785Z,57.84
2023-04-14T15:56:05.369Z,57.91
2023-04-14T15:58:31.976Z,58.36
2023-04-14T16:00:58.628Z,59.46
2023-04-14T16:03:25.701Z,59.66
2023-04-14T16:05:52.478Z,59.61
2023-04-14T16:08:19.100Z,59.38
2023-04-14T16:10:45.716Z,59.13
2023-04-14T16:13:12.412Z,59.07
2023-04-14T16:15:39.042Z,58.97
2023-04-14T16:18:05.754Z,59.53
2023-04-14T16:20:32.331Z,60.07
2023-04-14T16:22:58.940Z,59.36
2023-04-14T16:25:25.558Z,58.85
2023-04-14T16:27:52.213Z,58.78
2023-04-14T16:30:18.783Z,59.20
2023-04-14T16:32:45.453Z,58.99
2023-04-14T16:35:12.103Z,58.38
2023-04-14T16:37:39.764Z,59.07
2023-04-14T16:40:06.378Z,59.05
2023-04-14T16:42:33.033Z,58.59
2023-04-14T16:44:59.597Z,58.61
2023-04-14T16:47:26.240Z,58.23
2023-04-14T16:49:53.199Z,58.44
2023-04-14T16:52:19.777Z,59.35
2023-04-14T16:54:46.371Z,58.99
2023-04-14T16:57:12.950Z,58.69
2023-04-14T16:59:39.573Z,58.80
2023-04-14T17:02:06.389Z,58.92
2023-04-14T17:04:33.415Z,58.46
2023-04-14T17:07:00.238Z,58.33
2023-04-14T17:09:27.224Z,58.69
2023-04-14T17:11:54.068Z,58.82
2023-04-14T17:14:21.221Z,59.29
2023-04-14T17:16:47.801Z,58.51
2023-04-14T17:19:14.418Z,58.28
2023-04-14T17:21:41.016Z,58.47
2023-04-14T17:24:07.657Z,58.83
2023-04-14T17:26:36.751Z,58.69
2023-04-14T17:29:03.543Z,59.61
2023-04-14T17:31:32.320Z,59.47
2023-04-14T17:33:59.086Z,59.89
2023-04-14T17:36:25.698Z,59.51
2023-04-14T17:38:52.289Z,59.68
2023-04-14T17:41:19.010Z,59.28
2023-04-14T17:43:45.566Z,59.62
2023-04-14T17:46:12.365Z,59.96
2023-04-14T17:48:38.991Z,59.95
2023-04-14T17:51:05.962Z,60.09
2023-04-14T17:53:32.620Z,60.37
2023-04-14T17:55:59.226Z,60.71
2023-04-14T17:58:25.954Z,60.53
2023-04-14T18:00:52.694Z,60.89
2023-04-14T18:03:19.503Z,61.72
2023-04-14T18:05:46.129Z,62.34
2023-04-14T18:08:12.716Z,61.87
2023-04-14T18:10:41.365Z,62.36
2023-04-14T18:13:07.949Z,62.72
2023-04-14T18:15:34.635Z,61.67
2023-04-14T18:18:01.277Z,61.74
2023-04-14T18:20:28.096Z,61.48
2023-04-14T18:22:54.929Z,61.77
2023-04-14T18:25:21.520Z,61.54
2023-04-14T18:30:17.596Z,63.10
2023-04-14T18:32:44.260Z,62.43
2023-04-14T18:35:10.898Z,61.84
2023-04-14T18:37:37.509Z,61.78
2023-04-14T18:40:04.148Z,62.02
2023-04-14T18:42:30.736Z,61.99
2023-04-14T18:44:57.292Z,62.42
2023-04-14T18:47:23.930Z,62.68
2023-04-14T18:49:50.556Z,62.37
2023-04-14T18:52:17.114Z,62.03
2023-04-14T18:54:43.713Z,61.85
2023-04-14T18:57:10.500Z,62.19
2023-04-14T18:59:37.090Z,62.06
2023-04-14T19:02:03.786Z,61.90
2023-04-14T19:04:30.480Z,61.72
2023-04-14T19:06:57.078Z,62.07
2023-04-14T19:09:23.740Z,61.84
2023-04-14T19:11:50.333Z,62.08
2023-04-14T19:14:16.905Z,62.12
2023-04-14T19:16:43.558Z,62.05
2023-04-14T19:19:10.136Z,62.38
2023-04-14T19:21:36.723Z,62.17
2023-04-14T19:24:03.280Z,62.64
2023-04-14T19:26:29.894Z,63.46
2023-04-14T19:28:56.467Z,63.12
2023-04-14T19:31:23.066Z,63.52
2023-04-14T19:33:49.695Z,63.51
2023-04-14T19:36:16.336Z,63.55
2023-04-14T19:38:42.915Z,62.77
2023-04-14T19:41:09.480Z,62.99
2023-04-14T19:43:36.088Z,63.32
2023-04-14T19:46:02.655Z,62.83
2023-04-14T19:48:29.313Z,63.41
2023-04-14T19:50:55.920Z,63.22
2023-04-14T19:53:22.672Z,62.72
2023-04-14T19:55:49.340Z,63.57
2023-04-14T19:58:15.950Z,64.40
2023-04-14T20:00:42.530Z,65.09
2023-04-14T20:03:09.155Z,65.58
2023-04-14T20:05:35.742Z,65.97
2023-04-14T20:08:02.469Z,65.73
2023-04-14T20:10:29.105Z,65.94
2023-04-14T20:12:55.675Z,65.22
2023-04-14T20:15:22.262Z,64.65
2023-04-14T20:17:48.880Z,64.75
2023-04-14T20:20:15.586Z,64.72
2023-04-14T20:22:42.218Z,65.18
2023-04-14T20:25:08.778Z,65.02
2023-04-14T20:27:35.438Z,64.62
2023-04-14T20:30:01.989Z,64.60
2023-04-14T20:32:28.608Z,64.86
2023-04-14T20:34:55.360Z,64.66
2023-04-14T20:37:21.977Z,64.10
2023-04-14T20:39:48.538Z,64.87
2023-04-14T20:42:15.105Z,65.45
2023-04-14T20:44:41.718Z,64.58
2023-04-14T20:47:08.297Z,65.41
2023-04-14T20:49:34.921Z,65.97
2023-04-14T20:52:01.523Z,65.93
2023-04-14T20:54:28.105Z,65.75
2023-04-14T20:56:54.744Z,65.73
2023-04-14T20:59:21.453Z,66.42
2023-04-14T21:01:48.106Z,67.35
2023-04-14T21:04:14.858Z,67.25
2023-04-14T21:06:41.829Z,66.58
2023-04-14T21:09:08.554Z,66.00
2023-04-14T21:11:35.372Z,65.74
2023-04-14T21:15:29.229Z,66.14
2023-04-14T21:16:48.745Z,66.24
2023-04-14T21:19:15.784Z,66.35
2023-04-14T21:21:42.600Z,66.01
2023-04-14T21:24:09.193Z,66.41
2023-04-14T21:26:35.803Z,66.07
2023-04-14T21:29:02.581Z,66.25
2023-04-14T21:31:29.336Z,66.50
2023-04-14T21:33:55.955Z,66.33
2023-04-14T21:36:22.533Z,66.31
2023-04-14T21:38:49.094Z,66.10
2023-04-14T21:41:16.110Z,66.19
2023-04-14T21:43:42.701Z,66.55
2023-04-14T21:46:09.385Z,65.94
2023-04-14T21:48:36.026Z,65.68
2023-04-14T21:51:02.661Z,66.24
2023-04-14T21:53:29.657Z,67.08
2023-04-14T21:56:09.471Z,66.45
2023-04-14T21:58:37.445Z,65.84
2023-04-14T22:01:04.055Z,65.70
2023-04-14T22:03:30.810Z,66.02
2023-04-14T22:05:57.506Z,65.89
2023-04-14T22:08:24.259Z,67.05
2023-04-14T22:10:51.438Z,66.24
2023-04-14T22:13:18.005Z,66.67
2023-04-14T22:15:44.623Z,66.08
2023-04-14T22:18:11.200Z,66.34
2023-04-14T22:20:37.954Z,65.79
2023-04-14T22:23:04.822Z,65.55
2023-04-14T22:25:31.480Z,66.01
2023-04-14T22:27:58.041Z,66.04
2023-04-14T22:30:24.750Z,65.42
2023-04-14T22:32:51.508Z,65.92
2023-04-14T22:35:18.125Z,65.76
2023-04-14T22:37:44.704Z,65.83
2023-04-14T22:40:11.300Z,66.46
2023-04-14T22:42:37.917Z,66.31
2023-04-14T22:45:04.474Z,66.50
2023-04-14T22:47:31.128Z,66.86
2023-04-14T22:49:57.765Z,67.14
2023-04-14T22:52:24.364Z,68.18
2023-04-14T22:54:50.910Z,67.67
2023-04-14T22:57:17.697Z,68.04
2023-04-14T22:59:44.277Z,68.39
2023-04-14T23:02:12.029Z,68.45
2023-04-14T23:04:39.280Z,68.65
2023-04-14T23:07:05.868Z,68.75
2023-04-14T23:09:32.621Z,68.41
2023-04-14T23:11:59.201Z,67.80
2023-04-14T23:14:25.785Z,66.91
2023-04-14T23:16:52.545Z,66.44
2023-04-14T23:19:19.122Z,66.60
2023-04-14T23:21:45.791Z,66.05
2023-04-14T23:24:12.378Z,65.89
2023-04-14T23:26:38.966Z,65.42
2023-04-14T23:29:05.630Z,65.32
2023-04-14T23:31:32.296Z,65.08
2023-04-14T23:33:58.908Z,64.43
2023-04-14T23:36:25.506Z,64.33
2023-04-14T23:38:52.157Z,65.20
2023-04-14T23:41:18.773Z,64.99
2023-04-14T23:43:45.387Z,65.48
2023-04-14T23:46:12.032Z,65.27
2023-04-14T23:48:38.830Z,65.27
2023-04-14T23:51:14.365Z,65.41
2023-04-14T23:53:42.851Z,64.67
2023-04-14T23:56:09.429Z,64.60
2023-04-14T23:58:36.068Z,64.64
